sensor_id;sensor_type;location;lat;lon;timestamp;P1;durP1;ratioP1;P2;durP2;ratioP2
58621;SDS011;44389;51.578;5.456;2022-09-29T00:01:46;28.35;;;20.92;;
58621;SDS011;44389;51.578;5.456;2022-09-29T00:04:12;27.33;;;22.30;;
58621;SDS011;44389;51.578;5.456;2022-09-29T00:06:37;29.77;;;22.50;;
58621;SDS011;44389;51.578;5.456;2022-09-29T00:09:02;27.90;;;22.73;;
58621;SDS011;44389;51.578;5.456;2022-09-29T00:11:28;27.60;;;21.75;;
58621;SDS011;44389;51.578;5.456;2022-09-29T00:13:53;29.20;;;22.95;;
58621;SDS011;44389;51.578;5.456;2022-09-29T00:16:19;31.17;;;24.85;;
58621;SDS011;44389;51.578;5.456;2022-09-29T00:18:44;30.73;;;23.90;;
58621;SDS011;44389;51.578;5.456;2022-09-29T00:21:14;32.25;;;23.88;;
58621;SDS011;44389;51.578;5.456;2022-09-29T00:23:43;30.95;;;24.55;;
58621;SDS011;44389;51.578;5.456;2022-09-29T00:26:14;30.23;;;24.08;;
58621;SDS011;44389;51.578;5.456;2022-09-29T00:28:41;31.80;;;23.88;;
58621;SDS011;44389;51.578;5.456;2022-09-29T00:31:11;30.13;;;23.25;;
58621;SDS011;44389;51.578;5.456;2022-09-29T00:33:37;28.70;;;23.38;;
58621;SDS011;44389;51.578;5.456;2022-09-29T00:36:04;29.92;;;23.67;;
58621;SDS011;44389;51.578;5.456;2022-09-29T00:38:34;27.85;;;23.00;;
58621;SDS011;44389;51.578;5.456;2022-09-29T00:41:00;31.77;;;24.83;;
58621;SDS011;44389;51.578;5.456;2022-09-29T00:46:12;34.70;;;26.77;;
58621;SDS011;44389;51.578;5.456;2022-09-29T00:48:38;32.80;;;27.40;;
58621;SDS011;44389;51.578;5.456;2022-09-29T00:51:04;29.77;;;25.80;;
58621;SDS011;44389;51.578;5.456;2022-09-29T00:53:30;30.52;;;26.05;;
58621;SDS011;44389;51.578;5.456;2022-09-29T00:56:03;32.35;;;25.60;;
58621;SDS011;44389;51.578;5.456;2022-09-29T00:58:32;33.67;;;24.15;;
58621;SDS011;44389;51.578;5.456;2022-09-29T01:01:01;28.75;;;23.48;;
58621;SDS011;44389;51.578;5.456;2022-09-29T01:03:30;28.43;;;20.07;;
58621;SDS011;44389;51.578;5.456;2022-09-29T01:06:19;23.10;;;20.02;;
58621;SDS011;44389;51.578;5.456;2022-09-29T01:11:22;22.08;;;17.70;;
58621;SDS011;44389;51.578;5.456;2022-09-29T01:13:47;23.83;;;19.52;;
58621;SDS011;44389;51.578;5.456;2022-09-29T01:16:14;25.95;;;19.88;;
58621;SDS011;44389;51.578;5.456;2022-09-29T01:18:39;26.38;;;21.10;;
58621;SDS011;44389;51.578;5.456;2022-09-29T01:21:16;27.35;;;21.98;;
58621;SDS011;44389;51.578;5.456;2022-09-29T01:31:59;29.25;;;23.45;;
58621;SDS011;44389;51.578;5.456;2022-09-29T01:34:48;32.08;;;23.65;;
58621;SDS011;44389;51.578;5.456;2022-09-29T01:37:32;29.63;;;23.13;;
58621;SDS011;44389;51.578;5.456;2022-09-29T01:40:11;29.33;;;24.58;;
58621;SDS011;44389;51.578;5.456;2022-09-29T01:45:15;31.33;;;25.40;;
58621;SDS011;44389;51.578;5.456;2022-09-29T01:47:43;34.80;;;26.33;;
58621;SDS011;44389;51.578;5.456;2022-09-29T01:50:17;34.05;;;25.48;;
58621;SDS011;44389;51.578;5.456;2022-09-29T01:52:48;32.90;;;25.73;;
58621;SDS011;44389;51.578;5.456;2022-09-29T01:55:19;29.35;;;25.33;;
58621;SDS011;44389;51.578;5.456;2022-09-29T02:00:22;30.92;;;25.30;;
58621;SDS011;44389;51.578;5.456;2022-09-29T02:05:27;35.88;;;27.85;;
58621;SDS011;44389;51.578;5.456;2022-09-29T02:08:00;33.33;;;27.20;;
58621;SDS011;44389;51.578;5.456;2022-09-29T02:10:36;36.13;;;29.55;;
58621;SDS011;44389;51.578;5.456;2022-09-29T02:13:09;35.42;;;29.15;;
58621;SDS011;44389;51.578;5.456;2022-09-29T02:15:38;33.67;;;29.02;;
58621;SDS011;44389;51.578;5.456;2022-09-29T02:18:10;37.08;;;28.80;;
58621;SDS011;44389;51.578;5.456;2022-09-29T02:20:45;35.03;;;27.48;;
58621;SDS011;44389;51.578;5.456;2022-09-29T02:23:12;31.00;;;26.30;;
58621;SDS011;44389;51.578;5.456;2022-09-29T02:25:38;30.48;;;24.35;;
58621;SDS011;44389;51.578;5.456;2022-09-29T02:28:05;33.45;;;26.08;;
58621;SDS011;44389;51.578;5.456;2022-09-29T02:30:31;34.15;;;26.27;;
58621;SDS011;44389;51.578;5.456;2022-09-29T02:32:57;32.97;;;27.73;;
58621;SDS011;44389;51.578;5.456;2022-09-29T02:35:22;34.17;;;27.10;;
58621;SDS011;44389;51.578;5.456;2022-09-29T02:37:57;35.97;;;27.17;;
58621;SDS011;44389;51.578;5.456;2022-09-29T02:40:45;34.40;;;27.30;;
58621;SDS011;44389;51.578;5.456;2022-09-29T02:48:56;25.35;;;21.98;;
58621;SDS011;44389;51.578;5.456;2022-09-29T02:51:37;24.15;;;20.70;;
58621;SDS011;44389;51.578;5.456;2022-09-29T03:00:07;27.67;;;23.05;;
58621;SDS011;44389;51.578;5.456;2022-09-29T03:02:35;29.58;;;24.10;;
58621;SDS011;44389;51.578;5.456;2022-09-29T03:05:03;28.38;;;23.17;;
58621;SDS011;44389;51.578;5.456;2022-09-29T03:07:29;32.92;;;25.13;;
58621;SDS011;44389;51.578;5.456;2022-09-29T03:09:55;28.08;;;23.50;;
58621;SDS011;44389;51.578;5.456;2022-09-29T03:12:20;25.95;;;23.00;;
58621;SDS011;44389;51.578;5.456;2022-09-29T03:14:45;28.23;;;23.50;;
58621;SDS011;44389;51.578;5.456;2022-09-29T03:17:11;24.67;;;20.50;;
58621;SDS011;44389;51.578;5.456;2022-09-29T03:19:36;28.15;;;20.63;;
58621;SDS011;44389;51.578;5.456;2022-09-29T03:22:01;24.67;;;21.98;;
58621;SDS011;44389;51.578;5.456;2022-09-29T03:24:27;29.27;;;21.45;;
58621;SDS011;44389;51.578;5.456;2022-09-29T03:26:53;25.20;;;21.40;;
58621;SDS011;44389;51.578;5.456;2022-09-29T03:29:18;24.88;;;20.88;;
58621;SDS011;44389;51.578;5.456;2022-09-29T03:31:43;24.23;;;20.70;;
58621;SDS011;44389;51.578;5.456;2022-09-29T03:34:09;25.52;;;21.90;;
58621;SDS011;44389;51.578;5.456;2022-09-29T03:36:34;24.35;;;20.73;;
58621;SDS011;44389;51.578;5.456;2022-09-29T03:38:59;26.40;;;22.38;;
58621;SDS011;44389;51.578;5.456;2022-09-29T03:41:25;26.00;;;23.17;;
58621;SDS011;44389;51.578;5.456;2022-09-29T03:43:50;28.50;;;23.35;;
58621;SDS011;44389;51.578;5.456;2022-09-29T03:46:15;29.10;;;23.05;;
58621;SDS011;44389;51.578;5.456;2022-09-29T03:48:41;34.42;;;26.05;;
58621;SDS011;44389;51.578;5.456;2022-09-29T03:51:07;28.80;;;25.70;;
58621;SDS011;44389;51.578;5.456;2022-09-29T03:53:33;32.40;;;26.88;;
58621;SDS011;44389;51.578;5.456;2022-09-29T03:55:59;31.70;;;25.23;;
58621;SDS011;44389;51.578;5.456;2022-09-29T03:58:25;29.85;;;24.65;;
58621;SDS011;44389;51.578;5.456;2022-09-29T04:00:51;29.35;;;24.20;;
58621;SDS011;44389;51.578;5.456;2022-09-29T04:03:16;32.67;;;25.48;;
58621;SDS011;44389;51.578;5.456;2022-09-29T04:05:43;35.05;;;26.70;;
58621;SDS011;44389;51.578;5.456;2022-09-29T04:10:38;33.20;;;26.67;;
58621;SDS011;44389;51.578;5.456;2022-09-29T04:13:04;35.17;;;27.10;;
58621;SDS011;44389;51.578;5.456;2022-09-29T04:15:30;29.60;;;25.33;;
58621;SDS011;44389;51.578;5.456;2022-09-29T04:17:56;29.25;;;23.73;;
58621;SDS011;44389;51.578;5.456;2022-09-29T04:20:21;26.35;;;22.15;;
58621;SDS011;44389;51.578;5.456;2022-09-29T04:22:46;26.85;;;20.83;;
58621;SDS011;44389;51.578;5.456;2022-09-29T04:25:11;25.65;;;19.40;;
58621;SDS011;44389;51.578;5.456;2022-09-29T04:27:37;25.05;;;20.20;;
58621;SDS011;44389;51.578;5.456;2022-09-29T04:30:03;30.50;;;21.02;;
58621;SDS011;44389;51.578;5.456;2022-09-29T04:32:29;26.27;;;21.17;;
58621;SDS011;44389;51.578;5.456;2022-09-29T04:34:55;32.33;;;25.75;;
58621;SDS011;44389;51.578;5.456;2022-09-29T04:37:20;30.45;;;24.88;;
58621;SDS011;44389;51.578;5.456;2022-09-29T04:39:45;28.85;;;23.80;;
58621;SDS011;44389;51.578;5.456;2022-09-29T04:42:11;26.48;;;22.10;;
58621;SDS011;44389;51.578;5.456;2022-09-29T04:44:36;24.23;;;20.77;;
58621;SDS011;44389;51.578;5.456;2022-09-29T04:47:01;23.55;;;20.90;;
58621;SDS011;44389;51.578;5.456;2022-09-29T04:49:27;31.40;;;23.45;;
58621;SDS011;44389;51.578;5.456;2022-09-29T04:51:52;27.30;;;23.33;;
58621;SDS011;44389;51.578;5.456;2022-09-29T04:54:17;34.28;;;25.35;;
58621;SDS011;44389;51.578;5.456;2022-09-29T04:56:42;28.35;;;23.85;;
58621;SDS011;44389;51.578;5.456;2022-09-29T04:59:08;32.13;;;23.38;;
58621;SDS011;44389;51.578;5.456;2022-09-29T05:01:34;26.52;;;22.02;;
58621;SDS011;44389;51.578;5.456;2022-09-29T05:03:59;28.23;;;21.00;;
58621;SDS011;44389;51.578;5.456;2022-09-29T05:06:25;24.42;;;21.02;;
58621;SDS011;44389;51.578;5.456;2022-09-29T05:08:50;26.08;;;20.83;;
58621;SDS011;44389;51.578;5.456;2022-09-29T05:11:15;30.85;;;24.33;;
58621;SDS011;44389;51.578;5.456;2022-09-29T05:13:40;31.00;;;25.00;;
58621;SDS011;44389;51.578;5.456;2022-09-29T05:16:06;37.00;;;28.50;;
58621;SDS011;44389;51.578;5.456;2022-09-29T05:18:32;37.28;;;27.52;;
58621;SDS011;44389;51.578;5.456;2022-09-29T05:21:06;40.85;;;30.67;;
58621;SDS011;44389;51.578;5.456;2022-09-29T05:23:33;43.40;;;31.83;;
58621;SDS011;44389;51.578;5.456;2022-09-29T05:26:02;34.95;;;29.20;;
58621;SDS011;44389;51.578;5.456;2022-09-29T05:28:32;34.42;;;27.67;;
58621;SDS011;44389;51.578;5.456;2022-09-29T05:31:05;35.42;;;29.42;;
58621;SDS011;44389;51.578;5.456;2022-09-29T05:33:31;35.58;;;29.88;;
58621;SDS011;44389;51.578;5.456;2022-09-29T05:35:57;33.95;;;28.92;;
58621;SDS011;44389;51.578;5.456;2022-09-29T05:38:22;38.20;;;30.13;;
58621;SDS011;44389;51.578;5.456;2022-09-29T05:40:49;35.22;;;27.60;;
58621;SDS011;44389;51.578;5.456;2022-09-29T05:43:15;35.25;;;28.80;;
58621;SDS011;44389;51.578;5.456;2022-09-29T05:45:40;27.98;;;24.80;;
58621;SDS011;44389;51.578;5.456;2022-09-29T05:48:06;27.48;;;23.02;;
58621;SDS011;44389;51.578;5.456;2022-09-29T05:50:31;30.63;;;27.15;;
58621;SDS011;44389;51.578;5.456;2022-09-29T05:53:03;28.83;;;24.73;;
58621;SDS011;44389;51.578;5.456;2022-09-29T05:55:28;33.42;;;28.95;;
58621;SDS011;44389;51.578;5.456;2022-09-29T05:57:53;32.17;;;27.45;;
58621;SDS011;44389;51.578;5.456;2022-09-29T06:00:19;34.40;;;27.33;;
58621;SDS011;44389;51.578;5.456;2022-09-29T06:02:44;30.20;;;25.30;;
58621;SDS011;44389;51.578;5.456;2022-09-29T06:05:09;33.25;;;28.42;;
58621;SDS011;44389;51.578;5.456;2022-09-29T06:07:35;35.80;;;27.42;;
58621;SDS011;44389;51.578;5.456;2022-09-29T06:10:00;35.65;;;29.58;;
58621;SDS011;44389;51.578;5.456;2022-09-29T06:12:25;35.15;;;29.98;;
58621;SDS011;44389;51.578;5.456;2022-09-29T06:14:50;71.35;;;57.88;;
58621;SDS011;44389;51.578;5.456;2022-09-29T06:17:16;58.65;;;46.08;;
58621;SDS011;44389;51.578;5.456;2022-09-29T06:19:41;50.63;;;40.42;;
58621;SDS011;44389;51.578;5.456;2022-09-29T06:22:06;48.03;;;38.17;;
58621;SDS011;44389;51.578;5.456;2022-09-29T06:24:31;50.28;;;37.85;;
58621;SDS011;44389;51.578;5.456;2022-09-29T06:26:57;45.75;;;36.58;;
58621;SDS011;44389;51.578;5.456;2022-09-29T06:29:22;47.42;;;37.00;;
58621;SDS011;44389;51.578;5.456;2022-09-29T06:31:47;55.33;;;40.05;;
58621;SDS011;44389;51.578;5.456;2022-09-29T06:34:13;59.72;;;45.03;;
58621;SDS011;44389;51.578;5.456;2022-09-29T06:36:42;69.68;;;51.40;;
58621;SDS011;44389;51.578;5.456;2022-09-29T06:39:27;81.25;;;57.60;;
58621;SDS011;44389;51.578;5.456;2022-09-29T06:41:53;88.10;;;60.75;;
58621;SDS011;44389;51.578;5.456;2022-09-29T06:44:23;86.20;;;59.85;;
58621;SDS011;44389;51.578;5.456;2022-09-29T06:46:50;88.70;;;61.97;;
58621;SDS011;44389;51.578;5.456;2022-09-29T06:49:16;91.72;;;65.80;;
58621;SDS011;44389;51.578;5.456;2022-09-29T06:51:43;82.13;;;59.00;;
58621;SDS011;44389;51.578;5.456;2022-09-29T06:54:09;89.25;;;61.20;;
58621;SDS011;44389;51.578;5.456;2022-09-29T06:56:35;96.53;;;68.77;;
58621;SDS011;44389;51.578;5.456;2022-09-29T06:59:01;98.68;;;67.15;;
58621;SDS011;44389;51.578;5.456;2022-09-29T07:01:26;99.70;;;70.50;;
58621;SDS011;44389;51.578;5.456;2022-09-29T07:03:51;104.18;;;73.05;;
58621;SDS011;44389;51.578;5.456;2022-09-29T07:06:17;101.97;;;71.50;;
58621;SDS011;44389;51.578;5.456;2022-09-29T07:08:42;99.25;;;70.60;;
58621;SDS011;44389;51.578;5.456;2022-09-29T07:11:07;96.25;;;66.22;;
58621;SDS011;44389;51.578;5.456;2022-09-29T07:13:34;94.57;;;65.60;;
58621;SDS011;44389;51.578;5.456;2022-09-29T07:16:07;83.53;;;62.50;;
58621;SDS011;44389;51.578;5.456;2022-09-29T07:18:34;82.82;;;60.55;;
58621;SDS011;44389;51.578;5.456;2022-09-29T07:21:04;82.93;;;59.95;;
58621;SDS011;44389;51.578;5.456;2022-09-29T07:23:31;75.72;;;56.42;;
58621;SDS011;44389;51.578;5.456;2022-09-29T07:25:57;65.88;;;49.20;;
58621;SDS011;44389;51.578;5.456;2022-09-29T07:28:23;62.65;;;46.78;;
58621;SDS011;44389;51.578;5.456;2022-09-29T07:30:58;60.63;;;45.28;;
58621;SDS011;44389;51.578;5.456;2022-09-29T07:33:29;58.30;;;44.55;;
58621;SDS011;44389;51.578;5.456;2022-09-29T07:35:55;49.25;;;40.35;;
58621;SDS011;44389;51.578;5.456;2022-09-29T07:38:21;46.03;;;37.55;;
58621;SDS011;44389;51.578;5.456;2022-09-29T07:40:47;53.78;;;39.05;;
58621;SDS011;44389;51.578;5.456;2022-09-29T07:43:12;49.38;;;36.53;;
58621;SDS011;44389;51.578;5.456;2022-09-29T07:45:37;42.95;;;33.58;;
58621;SDS011;44389;51.578;5.456;2022-09-29T07:48:03;45.70;;;35.33;;
58621;SDS011;44389;51.578;5.456;2022-09-29T07:50:28;44.25;;;34.28;;
58621;SDS011;44389;51.578;5.456;2022-09-29T07:52:55;40.30;;;32.63;;
58621;SDS011;44389;51.578;5.456;2022-09-29T07:55:20;40.53;;;31.10;;
58621;SDS011;44389;51.578;5.456;2022-09-29T07:57:46;38.38;;;29.48;;
58621;SDS011;44389;51.578;5.456;2022-09-29T08:00:12;38.97;;;29.27;;
58621;SDS011;44389;51.578;5.456;2022-09-29T08:02:38;40.95;;;31.65;;
58621;SDS011;44389;51.578;5.456;2022-09-29T08:05:03;36.35;;;30.55;;
58621;SDS011;44389;51.578;5.456;2022-09-29T08:07:29;36.60;;;29.75;;
58621;SDS011;44389;51.578;5.456;2022-09-29T08:09:54;40.10;;;29.52;;
58621;SDS011;44389;51.578;5.456;2022-09-29T08:12:19;38.88;;;28.73;;
58621;SDS011;44389;51.578;5.456;2022-09-29T08:14:44;33.28;;;27.77;;
58621;SDS011;44389;51.578;5.456;2022-09-29T08:17:10;33.88;;;27.02;;
58621;SDS011;44389;51.578;5.456;2022-09-29T08:19:35;34.80;;;26.73;;
58621;SDS011;44389;51.578;5.456;2022-09-29T08:22:00;33.80;;;26.27;;
58621;SDS011;44389;51.578;5.456;2022-09-29T08:24:26;37.08;;;27.30;;
58621;SDS011;44389;51.578;5.456;2022-09-29T08:26:52;34.88;;;25.85;;
58621;SDS011;44389;51.578;5.456;2022-09-29T08:29:17;36.65;;;25.83;;
58621;SDS011;44389;51.578;5.456;2022-09-29T08:31:42;33.00;;;25.48;;
58621;SDS011;44389;51.578;5.456;2022-09-29T08:34:08;36.97;;;25.55;;
58621;SDS011;44389;51.578;5.456;2022-09-29T08:36:33;35.67;;;26.50;;
58621;SDS011;44389;51.578;5.456;2022-09-29T08:39:00;28.13;;;23.92;;
58621;SDS011;44389;51.578;5.456;2022-09-29T08:46:53;33.90;;;23.70;;
58621;SDS011;44389;51.578;5.456;2022-09-29T08:49:29;28.80;;;23.10;;
58621;SDS011;44389;51.578;5.456;2022-09-29T08:52:12;32.53;;;24.52;;
58621;SDS011;44389;51.578;5.456;2022-09-29T08:54:52;32.30;;;24.83;;
58621;SDS011;44389;51.578;5.456;2022-09-29T08:57:23;30.35;;;23.42;;
58621;SDS011;44389;51.578;5.456;2022-09-29T08:59:56;35.13;;;24.15;;
58621;SDS011;44389;51.578;5.456;2022-09-29T09:05:07;30.23;;;23.35;;
58621;SDS011;44389;51.578;5.456;2022-09-29T09:10:21;33.35;;;25.33;;
58621;SDS011;44389;51.578;5.456;2022-09-29T09:13:02;33.28;;;25.95;;
58621;SDS011;44389;51.578;5.456;2022-09-29T09:18:38;35.03;;;24.98;;
58621;SDS011;44389;51.578;5.456;2022-09-29T09:21:17;31.92;;;24.75;;
58621;SDS011;44389;51.578;5.456;2022-09-29T09:23:52;35.40;;;24.40;;
58621;SDS011;44389;51.578;5.456;2022-09-29T09:26:18;32.30;;;26.50;;
58621;SDS011;44389;51.578;5.456;2022-09-29T09:28:52;28.17;;;21.67;;
58621;SDS011;44389;51.578;5.456;2022-09-29T09:34:28;31.45;;;24.40;;
58621;SDS011;44389;51.578;5.456;2022-09-29T09:37:20;28.38;;;20.20;;
58621;SDS011;44389;51.578;5.456;2022-09-29T09:40:10;24.13;;;19.55;;
58621;SDS011;44389;51.578;5.456;2022-09-29T09:42:41;21.45;;;15.73;;
58621;SDS011;44389;51.578;5.456;2022-09-29T09:45:28;19.27;;;14.68;;
58621;SDS011;44389;51.578;5.456;2022-09-29T09:48:31;19.60;;;13.55;;
58621;SDS011;44389;51.578;5.456;2022-09-29T09:50:54;13.13;;;9.15;;
58621;SDS011;44389;51.578;5.456;2022-09-29T09:53:31;13.23;;;10.00;;
58621;SDS011;44389;51.578;5.456;2022-09-29T09:59:11;12.43;;;8.65;;
58621;SDS011;44389;51.578;5.456;2022-09-29T10:01:56;15.67;;;9.50;;
58621;SDS011;44389;51.578;5.456;2022-09-29T10:04:22;13.77;;;9.13;;
58621;SDS011;44389;51.578;5.456;2022-09-29T10:09:15;12.25;;;8.18;;
58621;SDS011;44389;51.578;5.456;2022-09-29T10:11:41;10.25;;;7.47;;
58621;SDS011;44389;51.578;5.456;2022-09-29T10:14:14;12.52;;;7.43;;
58621;SDS011;44389;51.578;5.456;2022-09-29T10:16:47;14.43;;;8.65;;
58621;SDS011;44389;51.578;5.456;2022-09-29T10:19:20;7.78;;;5.60;;
58621;SDS011;44389;51.578;5.456;2022-09-29T10:21:47;7.95;;;4.60;;
58621;SDS011;44389;51.578;5.456;2022-09-29T10:24:21;9.43;;;5.10;;
58621;SDS011;44389;51.578;5.456;2022-09-29T10:26:55;11.95;;;7.20;;
58621;SDS011;44389;51.578;5.456;2022-09-29T10:34:28;10.18;;;6.28;;
58621;SDS011;44389;51.578;5.456;2022-09-29T10:36:59;11.03;;;7.10;;
58621;SDS011;44389;51.578;5.456;2022-09-29T10:41:58;12.15;;;7.00;;
58621;SDS011;44389;51.578;5.456;2022-09-29T10:44:24;11.07;;;6.55;;
58621;SDS011;44389;51.578;5.456;2022-09-29T10:46:55;11.25;;;6.45;;
58621;SDS011;44389;51.578;5.456;2022-09-29T10:49:22;10.82;;;6.03;;
58621;SDS011;44389;51.578;5.456;2022-09-29T10:54:31;7.35;;;4.75;;
58621;SDS011;44389;51.578;5.456;2022-09-29T10:56:59;9.55;;;5.50;;
58621;SDS011;44389;51.578;5.456;2022-09-29T10:59:45;9.20;;;5.68;;
58621;SDS011;44389;51.578;5.456;2022-09-29T11:02:16;6.77;;;4.10;;
58621;SDS011;44389;51.578;5.456;2022-09-29T11:04:46;9.93;;;4.80;;
58621;SDS011;44389;51.578;5.456;2022-09-29T11:07:12;10.45;;;5.00;;
58621;SDS011;44389;51.578;5.456;2022-09-29T11:09:42;7.47;;;4.70;;
58621;SDS011;44389;51.578;5.456;2022-09-29T11:14:57;9.57;;;5.82;;
58621;SDS011;44389;51.578;5.456;2022-09-29T11:20:02;5.88;;;3.63;;
58621;SDS011;44389;51.578;5.456;2022-09-29T11:26:35;8.52;;;3.95;;
58621;SDS011;44389;51.578;5.456;2022-09-29T11:28:49;6.78;;;3.30;;
58621;SDS011;44389;51.578;5.456;2022-09-29T11:34:07;6.75;;;3.10;;
58621;SDS011;44389;51.578;5.456;2022-09-29T11:45:01;7.07;;;4.53;;
58621;SDS011;44389;51.578;5.456;2022-09-29T11:50:46;9.93;;;4.57;;
58621;SDS011;44389;51.578;5.456;2022-09-29T11:55:57;8.50;;;4.85;;
58621;SDS011;44389;51.578;5.456;2022-09-29T12:04:12;7.05;;;3.92;;
58621;SDS011;44389;51.578;5.456;2022-09-29T12:06:54;6.65;;;3.42;;
58621;SDS011;44389;51.578;5.456;2022-09-29T12:09:32;4.65;;;3.15;;
58621;SDS011;44389;51.578;5.456;2022-09-29T12:17:33;6.68;;;2.97;;
58621;SDS011;44389;51.578;5.456;2022-09-29T12:20:03;8.88;;;3.78;;
58621;SDS011;44389;51.578;5.456;2022-09-29T12:22:37;6.97;;;2.85;;
58621;SDS011;44389;51.578;5.456;2022-09-29T12:25:03;5.55;;;3.40;;
58621;SDS011;44389;51.578;5.456;2022-09-29T12:27:35;6.32;;;3.42;;
58621;SDS011;44389;51.578;5.456;2022-09-29T12:35:30;6.72;;;3.33;;
58621;SDS011;44389;51.578;5.456;2022-09-29T12:43:31;8.60;;;2.70;;
58621;SDS011;44389;51.578;5.456;2022-09-29T12:46:11;4.22;;;2.33;;
58621;SDS011;44389;51.578;5.456;2022-09-29T12:48:54;7.18;;;2.25;;
58621;SDS011;44389;51.578;5.456;2022-09-29T12:51:34;10.57;;;3.00;;
58621;SDS011;44389;51.578;5.456;2022-09-29T12:54:13;4.88;;;3.10;;
58621;SDS011;44389;51.578;5.456;2022-09-29T12:56:47;7.53;;;3.38;;
58621;SDS011;44389;51.578;5.456;2022-09-29T12:59:31;5.80;;;2.88;;
58621;SDS011;44389;51.578;5.456;2022-09-29T13:10:41;3.30;;;1.70;;
58621;SDS011;44389;51.578;5.456;2022-09-29T13:16:45;4.65;;;1.98;;
58621;SDS011;44389;51.578;5.456;2022-09-29T13:28:00;7.50;;;3.25;;
58621;SDS011;44389;51.578;5.456;2022-09-29T13:30:28;7.75;;;2.88;;
58621;SDS011;44389;51.578;5.456;2022-09-29T13:33:08;4.30;;;2.20;;
58621;SDS011;44389;51.578;5.456;2022-09-29T13:38:06;5.93;;;2.75;;
58621;SDS011;44389;51.578;5.456;2022-09-29T13:40:37;6.22;;;2.75;;
58621;SDS011;44389;51.578;5.456;2022-09-29T13:43:02;4.82;;;2.47;;
58621;SDS011;44389;51.578;5.456;2022-09-29T13:47:59;6.07;;;2.30;;
58621;SDS011;44389;51.578;5.456;2022-09-29T13:50:43;5.82;;;2.92;;
58621;SDS011;44389;51.578;5.456;2022-09-29T14:00:54;7.30;;;3.08;;
58621;SDS011;44389;51.578;5.456;2022-09-29T14:06:03;9.48;;;3.50;;
58621;SDS011;44389;51.578;5.456;2022-09-29T14:08:35;7.30;;;3.60;;
58621;SDS011;44389;51.578;5.456;2022-09-29T14:11:23;5.97;;;3.30;;
58621;SDS011;44389;51.578;5.456;2022-09-29T14:14:04;7.00;;;3.25;;
58621;SDS011;44389;51.578;5.456;2022-09-29T14:19:17;6.15;;;3.80;;
58621;SDS011;44389;51.578;5.456;2022-09-29T14:21:59;8.25;;;3.60;;
58621;SDS011;44389;51.578;5.456;2022-09-29T14:30:01;9.70;;;2.70;;
58621;SDS011;44389;51.578;5.456;2022-09-29T14:38:12;7.75;;;3.25;;
58621;SDS011;44389;51.578;5.456;2022-09-29T14:40:57;8.48;;;3.28;;
58621;SDS011;44389;51.578;5.456;2022-09-29T14:43:44;8.57;;;3.22;;
58621;SDS011;44389;51.578;5.456;2022-09-29T14:55:29;9.05;;;3.65;;
58621;SDS011;44389;51.578;5.456;2022-09-29T15:03:52;7.97;;;4.47;;
58621;SDS011;44389;51.578;5.456;2022-09-29T15:06:22;9.18;;;4.47;;
58621;SDS011;44389;51.578;5.456;2022-09-29T15:08:53;7.13;;;3.88;;
58621;SDS011;44389;51.578;5.456;2022-09-29T15:14:21;10.13;;;4.13;;
58621;SDS011;44389;51.578;5.456;2022-09-29T15:27:19;9.52;;;4.32;;
58621;SDS011;44389;51.578;5.456;2022-09-29T15:29:47;7.10;;;4.03;;
58621;SDS011;44389;51.578;5.456;2022-09-29T15:32:19;10.52;;;4.10;;
58621;SDS011;44389;51.578;5.456;2022-09-29T15:34:48;8.27;;;4.30;;
58621;SDS011;44389;51.578;5.456;2022-09-29T15:37:15;8.63;;;4.15;;
58621;SDS011;44389;51.578;5.456;2022-09-29T15:39:42;9.50;;;4.10;;
58621;SDS011;44389;51.578;5.456;2022-09-29T15:42:19;9.23;;;4.57;;
58621;SDS011;44389;51.578;5.456;2022-09-29T15:44:51;6.70;;;3.97;;
58621;SDS011;44389;51.578;5.456;2022-09-29T15:47:25;10.63;;;4.15;;
58621;SDS011;44389;51.578;5.456;2022-09-29T15:50:05;7.72;;;4.00;;
58621;SDS011;44389;51.578;5.456;2022-09-29T15:52:44;11.27;;;4.07;;
58621;SDS011;44389;51.578;5.456;2022-09-29T15:55:14;7.40;;;3.83;;
58621;SDS011;44389;51.578;5.456;2022-09-29T15:57:48;10.00;;;5.57;;
58621;SDS011;44389;51.578;5.456;2022-09-29T16:01:02;7.30;;;4.25;;
58621;SDS011;44389;51.578;5.456;2022-09-29T16:03:08;8.38;;;5.10;;
58621;SDS011;44389;51.578;5.456;2022-09-29T16:05:38;12.40;;;5.47;;
58621;SDS011;44389;51.578;5.456;2022-09-29T16:08:10;12.05;;;5.00;;
58621;SDS011;44389;51.578;5.456;2022-09-29T16:10:50;10.05;;;5.40;;
58621;SDS011;44389;51.578;5.456;2022-09-29T16:13:28;10.27;;;4.50;;
58621;SDS011;44389;51.578;5.456;2022-09-29T16:15:57;12.10;;;5.30;;
58621;SDS011;44389;51.578;5.456;2022-09-29T16:18:27;10.13;;;4.80;;
58621;SDS011;44389;51.578;5.456;2022-09-29T16:20:57;10.25;;;5.00;;
58621;SDS011;44389;51.578;5.456;2022-09-29T16:23:34;10.65;;;5.72;;
58621;SDS011;44389;51.578;5.456;2022-09-29T16:31:38;18.17;;;5.68;;
58621;SDS011;44389;51.578;5.456;2022-09-29T16:39:23;10.68;;;5.43;;
58621;SDS011;44389;51.578;5.456;2022-09-29T16:41:54;11.32;;;5.82;;
58621;SDS011;44389;51.578;5.456;2022-09-29T16:44:31;11.18;;;6.80;;
58621;SDS011;44389;51.578;5.456;2022-09-29T16:47:01;14.55;;;7.20;;
58621;SDS011;44389;51.578;5.456;2022-09-29T16:49:37;13.40;;;7.13;;
58621;SDS011;44389;51.578;5.456;2022-09-29T16:52:12;15.18;;;8.20;;
58621;SDS011;44389;51.578;5.456;2022-09-29T16:54:45;13.52;;;8.38;;
58621;SDS011;44389;51.578;5.456;2022-09-29T16:57:23;15.68;;;9.38;;
58621;SDS011;44389;51.578;5.456;2022-09-29T16:59:54;21.83;;;9.43;;
58621;SDS011;44389;51.578;5.456;2022-09-29T17:02:34;19.90;;;9.48;;
58621;SDS011;44389;51.578;5.456;2022-09-29T17:05:00;19.40;;;10.73;;
58621;SDS011;44389;51.578;5.456;2022-09-29T17:07:28;18.98;;;9.70;;
58621;SDS011;44389;51.578;5.456;2022-09-29T17:09:55;15.98;;;8.52;;
58621;SDS011;44389;51.578;5.456;2022-09-29T17:12:23;19.08;;;9.90;;
58621;SDS011;44389;51.578;5.456;2022-09-29T17:17:17;20.73;;;10.10;;
58621;SDS011;44389;51.578;5.456;2022-09-29T17:19:46;21.92;;;13.57;;
58621;SDS011;44389;51.578;5.456;2022-09-29T17:22:29;20.35;;;11.93;;
58621;SDS011;44389;51.578;5.456;2022-09-29T17:24:56;24.48;;;15.75;;
58621;SDS011;44389;51.578;5.456;2022-09-29T17:27:22;23.33;;;15.48;;
58621;SDS011;44389;51.578;5.456;2022-09-29T17:30:07;22.05;;;15.40;;
58621;SDS011;44389;51.578;5.456;2022-09-29T17:32:34;32.25;;;18.15;;
58621;SDS011;44389;51.578;5.456;2022-09-29T17:35:00;32.00;;;19.10;;
58621;SDS011;44389;51.578;5.456;2022-09-29T17:37:26;35.28;;;17.77;;
58621;SDS011;44389;51.578;5.456;2022-09-29T17:39:51;23.42;;;12.95;;
58621;SDS011;44389;51.578;5.456;2022-09-29T17:42:16;26.02;;;15.43;;
58621;SDS011;44389;51.578;5.456;2022-09-29T17:44:42;26.00;;;16.10;;
58621;SDS011;44389;51.578;5.456;2022-09-29T17:47:14;24.23;;;17.02;;
58621;SDS011;44389;51.578;5.456;2022-09-29T17:49:41;27.92;;;17.67;;
58621;SDS011;44389;51.578;5.456;2022-09-29T17:52:07;63.67;;;39.85;;
58621;SDS011;44389;51.578;5.456;2022-09-29T17:54:34;49.30;;;34.17;;
58621;SDS011;44389;51.578;5.456;2022-09-29T17:57:01;36.20;;;24.88;;
58621;SDS011;44389;51.578;5.456;2022-09-29T17:59:27;37.17;;;24.70;;
58621;SDS011;44389;51.578;5.456;2022-09-29T18:01:52;48.83;;;32.38;;
58621;SDS011;44389;51.578;5.456;2022-09-29T18:04:18;70.13;;;47.83;;
58621;SDS011;44389;51.578;5.456;2022-09-29T18:06:43;70.32;;;45.30;;
58621;SDS011;44389;51.578;5.456;2022-09-29T18:09:15;66.70;;;43.97;;
58621;SDS011;44389;51.578;5.456;2022-09-29T18:11:42;64.85;;;41.15;;